Time;durP1;ratioP1;P1;durP2;ratioP2;P2;SDS_P1;SDS_P2;PMS_P1;PMS_P2;Temp;Humidity;BMP_temperature;BMP_pressure;BME280_temperature;BME280_humidity;BME280_pressure;Samples;Min_cycle;Max_cycle;Signal;HPM_P1;HPM_P2
2022/03/04 00:00:32;;;;;;;0.10;0.10;;;1.80;99.90;;;;;;5055619;28;20639;-63
2022/03/04 00:02:59;;;;;;;0.20;0.20;;;2.00;99.90;;;;;;5032959;28;20625;-63
2022/03/04 00:05:26;;;;;;;0.20;0.20;;;2.00;99.90;;;;;;5040086;28;21187;-67
2022/03/04 00:07:53;;;;;;;0.20;0.20;;;1.90;99.90;;;;;;5051269;28;20647;-66
2022/03/04 00:10:21;;;;;;;0.10;0.10;;;2.00;99.90;;;;;;5042570;28;20630;-68
2022/03/04 00:12:48;;;;;;;0.10;0.10;;;1.90;99.90;;;;;;5054661;28;20681;-67
2022/03/04 00:15:15;;;;;;;0.20;0.20;;;1.90;99.90;;;;;;5034163;28;20623;-63
2022/03/04 00:17:42;;;;;;;0.20;0.20;;;1.80;99.90;;;;;;5038091;28;20769;-63
2022/03/04 00:20:10;;;;;;;0.20;0.20;;;2.00;99.90;;;;;;5047889;28;20641;-63
2022/03/04 00:22:37;;;;;;;0.10;0.10;;;1.90;99.90;;;;;;5034714;28;20630;-63
2022/03/04 00:25:05;;;;;;;0.13;0.13;;;1.80;99.90;;;;;;5032483;28;20720;-64
2022/03/04 00:27:33;;;;;;;0.10;0.10;;;1.90;99.90;;;;;;5035766;28;20660;-63
2022/03/04 00:30:01;;;;;;;0.20;0.20;;;1.80;99.90;;;;;;5038917;28;20628;-63
2022/03/04 00:32:28;;;;;;;0.20;0.20;;;1.80;99.90;;;;;;5035766;28;20731;-63
2022/03/04 00:34:55;;;;;;;0.10;0.10;;;2.00;99.90;;;;;;5050946;28;20700;-63
2022/03/04 00:37:22;;;;;;;0.10;0.10;;;2.00;99.90;;;;;;5051534;28;20737;-63
2022/03/04 00:39:49;;;;;;;0.10;0.10;;;2.00;99.90;;;;;;5052650;28;20717;-63
2022/03/04 00:42:16;;;;;;;0.10;0.10;;;2.10;99.90;;;;;;5049642;28;20678;-63
2022/03/04 00:44:45;;;;;;;0.10;0.10;;;2.00;99.90;;;;;;5035641;28;20617;-63
2022/03/04 00:47:11;;;;;;;0.13;0.13;;;2.00;99.90;;;;;;5037917;28;21030;-64
2022/03/04 00:49:39;;;;;;;0.13;0.13;;;2.10;99.90;;;;;;5048487;28;20609;-66
2022/03/04 00:52:06;;;;;;;0.20;0.20;;;2.00;99.90;;;;;;5032676;28;20660;-67
2022/03/04 00:54:33;;;;;;;0.20;0.20;;;2.10;99.90;;;;;;5037387;28;20682;-65
2022/03/04 00:57:00;;;;;;;0.10;0.10;;;2.20;99.90;;;;;;5054484;28;20636;-65
2022/03/04 00:59:28;;;;;;;0.20;0.20;;;2.00;99.90;;;;;;5036083;28;20623;-68
2022/03/04 01:01:56;;;;;;;0.13;0.13;;;2.10;99.90;;;;;;5031628;28;20622;-66
2022/03/04 01:04:24;;;;;;;0.13;0.13;;;2.10;99.90;;;;;;5054250;28;20637;-66
2022/03/04 01:06:51;;;;;;;0.10;0.10;;;2.20;99.90;;;;;;5037348;28;20632;-68
2022/03/04 01:09:18;;;;;;;0.20;0.20;;;2.20;99.90;;;;;;5052966;28;21222;-64
2022/03/04 01:11:45;;;;;;;0.20;0.20;;;2.10;99.90;;;;;;5034408;28;20713;-63
2022/03/04 01:14:12;;;;;;;0.17;0.17;;;2.20;99.90;;;;;;5053213;28;20622;-64
2022/03/04 01:16:39;;;;;;;0.10;0.10;;;2.10;99.90;;;;;;5051841;28;20662;-66
2022/03/04 01:19:07;;;;;;;0.10;0.10;;;2.20;99.90;;;;;;5057268;28;20658;-68
2022/03/04 01:21:34;;;;;;;0.20;0.20;;;2.10;99.90;;;;;;5038192;28;20625;-69
2022/03/04 01:24:02;;;;;;;0.13;0.13;;;2.20;99.90;;;;;;5027291;28;20633;-68
2022/03/04 01:26:28;;;;;;;0.10;0.10;;;2.10;99.90;;;;;;5039893;28;20655;-68
2022/03/04 01:28:55;;;;;;;0.10;0.10;;;2.00;99.90;;;;;;5042823;28;20726;-66
2022/03/04 01:31:22;;;;;;;0.10;0.10;;;2.10;99.90;;;;;;5054218;28;20714;-66
2022/03/04 01:33:49;;;;;;;0.20;0.20;;;2.20;99.90;;;;;;5040891;28;20649;-66
2022/03/04 01:36:18;;;;;;;0.13;0.13;;;2.20;99.90;;;;;;5037115;28;20731;-65
2022/03/04 01:38:45;;;;;;;0.10;0.10;;;2.30;99.90;;;;;;5055192;28;20640;-69
2022/03/04 01:41:12;;;;;;;0.10;0.10;;;2.20;99.90;;;;;;5047758;28;20616;-66
2022/03/04 01:43:40;;;;;;;0.17;0.17;;;2.00;99.90;;;;;;5055835;28;20659;-67
2022/03/04 01:46:12;;;;;;;0.20;0.20;;;2.00;99.90;;;;;;5048628;28;20619;-63
2022/03/04 01:48:40;;;;;;;0.10;0.10;;;2.10;99.90;;;;;;5044426;28;20742;-68
2022/03/04 01:51:09;;;;;;;0.10;0.10;;;2.10;99.90;;;;;;5041257;28;20645;-67
2022/03/04 01:53:38;;;;;;;0.10;0.10;;;2.10;99.90;;;;;;5033904;28;20625;-66
2022/03/04 01:56:05;;;;;;;0.20;0.20;;;2.10;99.90;;;;;;5042339;28;20632;-67
2022/03/04 01:58:33;;;;;;;0.10;0.10;;;1.90;99.90;;;;;;5034943;28;20659;-67
2022/03/04 02:01:00;;;;;;;0.20;0.20;;;1.90;99.90;;;;;;5053118;28;20761;-67
2022/03/04 02:03:28;;;;;;;0.17;0.17;;;2.10;99.90;;;;;;5054077;28;20651;-66
2022/03/04 02:05:55;;;;;;;0.10;0.10;;;2.10;99.90;;;;;;5031348;28;20630;-67
2022/03/04 02:08:22;;;;;;;0.10;0.10;;;2.10;99.90;;;;;;5045069;28;20671;-68
2022/03/04 02:10:51;;;;;;;0.10;0.10;;;2.20;99.90;;;;;;5036053;28;21168;-65
2022/03/04 02:13:19;;;;;;;0.10;0.10;;;2.10;99.90;;;;;;5058279;28;20657;-65
2022/03/04 02:15:46;;;;;;;0.10;0.10;;;2.10;99.90;;;;;;5033922;28;20649;-65
2022/03/04 02:18:14;;;;;;;0.10;0.10;;;2.20;99.90;;;;;;5058371;28;20646;-67
2022/03/04 02:20:46;;;;;;;0.10;0.10;;;2.10;99.90;;;;;;5041317;28;20625;-65
2022/03/04 02:23:14;;;;;;;0.13;0.13;;;2.30;99.90;;;;;;5041728;28;20619;-66
2022/03/04 02:25:43;;;;;;;0.10;0.10;;;2.20;99.90;;;;;;5038161;28;20632;-65
2022/03/04 02:28:10;;;;;;;0.10;0.10;;;2.20;99.90;;;;;;5038083;28;20653;-66
2022/03/04 02:30:37;;;;;;;0.10;0.10;;;2.30;99.90;;;;;;5040181;28;20625;-66
2022/03/04 02:33:06;;;;;;;0.10;0.10;;;2.20;99.90;;;;;;5058237;28;20659;-66
2022/03/04 02:35:34;;;;;;;0.10;0.10;;;2.20;99.90;;;;;;5041959;28;20625;-66
2022/03/04 02:38:02;;;;;;;0.20;0.20;;;2.10;99.90;;;;;;5042805;28;20797;-68
2022/03/04 02:40:30;;;;;;;0.10;0.10;;;2.20;99.90;;;;;;5034662;28;20715;-66
2022/03/04 02:42:57;;;;;;;0.20;0.20;;;2.10;99.90;;;;;;5036152;28;20629;-68
2022/03/04 02:45:25;;;;;;;0.17;0.17;;;2.20;99.90;;;;;;5034765;28;20621;-65
2022/03/04 02:47:52;;;;;;;0.10;0.10;;;2.30;99.90;;;;;;5031889;28;20681;-65
2022/03/04 02:50:20;;;;;;;0.20;0.20;;;2.30;99.90;;;;;;5038550;28;20620;-69
2022/03/04 02:52:47;;;;;;;0.10;0.10;;;2.10;99.90;;;;;;5034696;28;20719;-64
2022/03/04 02:55:14;;;;;;;0.20;0.20;;;2.20;99.90;;;;;;5058862;28;20631;-66
2022/03/04 02:57:44;;;;;;;0.17;0.17;;;2.10;99.90;;;;;;5049357;28;20756;-64
2022/03/04 03:00:13;;;;;;;0.13;0.13;;;2.10;99.90;;;;;;5059042;28;20629;-66
2022/03/04 03:02:41;;;;;;;0.20;0.20;;;2.10;99.90;;;;;;5040142;28;20610;-65
2022/03/04 03:05:09;;;;;;;0.10;0.10;;;2.20;99.90;;;;;;5058254;28;20632;-68
2022/03/04 03:07:38;;;;;;;0.20;0.20;;;2.10;99.90;;;;;;5040746;28;20663;-67
2022/03/04 03:10:06;;;;;;;0.20;0.20;;;2.20;99.90;;;;;;5037860;28;20637;-66
2022/03/04 03:12:33;;;;;;;0.10;0.10;;;2.20;99.90;;;;;;5041932;28;20663;-67
2022/03/04 03:15:01;;;;;;;0.17;0.17;;;2.20;99.90;;;;;;5056749;28;20645;-65
2022/03/04 03:17:29;;;;;;;0.20;0.20;;;2.20;99.90;;;;;;5054586;28;20692;-67
2022/03/04 03:19:56;;;;;;;0.20;0.20;;;2.30;99.90;;;;;;5028584;28;20633;-66
2022/03/04 03:22:22;;;;;;;0.20;0.20;;;2.30;99.90;;;;;;5058871;28;21199;-67
2022/03/04 03:24:49;;;;;;;0.10;0.10;;;2.00;99.90;;;;;;5044169;28;20637;-66
2022/03/04 03:27:16;;;;;;;0.20;0.20;;;2.00;99.90;;;;;;5032533;28;20711;-66
2022/03/04 03:29:44;;;;;;;0.17;0.17;;;2.00;99.90;;;;;;5039731;28;20649;-66
2022/03/04 03:32:13;;;;;;;0.10;0.10;;;1.90;99.90;;;;;;5035316;28;20662;-67
2022/03/04 03:34:41;;;;;;;0.10;0.10;;;2.00;99.90;;;;;;5044261;28;20625;-66
2022/03/04 03:37:10;;;;;;;0.20;0.20;;;1.90;99.90;;;;;;5030802;28;20633;-66
2022/03/04 03:39:37;;;;;;;0.10;0.10;;;1.90;99.90;;;;;;5036188;28;20617;-65
2022/03/04 03:42:05;;;;;;;0.20;0.20;;;1.80;99.90;;;;;;5053833;28;20702;-67
2022/03/04 03:44:32;;;;;;;0.10;0.10;;;1.90;99.90;;;;;;5042933;28;20659;-66
2022/03/04 03:46:59;;;;;;;0.20;0.20;;;1.70;99.90;;;;;;5048599;28;20655;-68
2022/03/04 03:49:27;;;;;;;0.20;0.20;;;1.80;99.90;;;;;;5034305;28;21095;-66
2022/03/04 03:51:54;;;;;;;0.20;0.20;;;2.00;99.90;;;;;;5054548;28;20637;-63
2022/03/04 03:54:21;;;;;;;0.20;0.20;;;1.80;99.90;;;;;;5036146;28;20612;-62
2022/03/04 03:56:48;;;;;;;0.10;0.10;;;1.80;99.90;;;;;;5034663;28;20766;-62
2022/03/04 03:59:15;;;;;;;0.10;0.10;;;1.80;99.90;;;;;;5057350;28;20640;-63
2022/03/04 04:01:42;;;;;;;0.10;0.10;;;2.00;99.90;;;;;;5051007;28;20614;-66
2022/03/04 04:04:10;;;;;;;0.10;0.10;;;2.00;99.90;;;;;;5044237;28;20710;-66
2022/03/04 04:06:39;;;;;;;0.10;0.10;;;1.90;99.90;;;;;;5054824;28;20639;-66
2022/03/04 04:09:06;;;;;;;0.13;0.13;;;1.70;99.90;;;;;;5036594;28;20653;-67
2022/03/04 04:11:35;;;;;;;0.10;0.10;;;1.90;99.90;;;;;;5034940;28;20632;-66
2022/03/04 04:14:02;;;;;;;0.10;0.10;;;1.80;99.90;;;;;;5040418;28;20654;-65
2022/03/04 04:16:29;;;;;;;0.10;0.10;;;1.80;99.90;;;;;;5040068;28;20625;-65
2022/03/04 04:18:57;;;;;;;0.20;0.20;;;1.80;99.90;;;;;;5035887;28;20711;-65
2022/03/04 04:21:24;;;;;;;0.10;0.10;;;1.90;99.90;;;;;;5030543;28;20628;-66
2022/03/04 04:23:53;;;;;;;0.10;0.10;;;1.90;99.90;;;;;;5038369;28;20648;-65
2022/03/04 04:26:21;;;;;;;0.20;0.20;;;2.00;99.90;;;;;;5052667;28;21247;-66
2022/03/04 04:28:48;;;;;;;0.10;0.10;;;2.10;99.90;;;;;;5038827;28;20668;-65
2022/03/04 04:31:15;;;;;;;0.10;0.10;;;2.00;99.90;;;;;;5037936;28;20698;-64
2022/03/04 04:33:43;;;;;;;0.20;0.20;;;2.10;99.90;;;;;;5057179;28;20663;-68
2022/03/04 04:36:10;;;;;;;0.20;0.20;;;2.00;99.90;;;;;;5036115;28;20688;-65
2022/03/04 04:38:37;;;;;;;0.10;0.10;;;2.00;99.90;;;;;;5037853;28;20749;-67
2022/03/04 04:41:06;;;;;;;0.10;0.10;;;1.90;99.90;;;;;;5055190;28;20630;-68
2022/03/04 04:43:33;;;;;;;0.10;0.10;;;2.00;99.90;;;;;;5033253;28;20614;-63
2022/03/04 04:46:00;;;;;;;0.20;0.20;;;2.10;99.90;;;;;;5042317;28;20639;-64
2022/03/04 04:48:27;;;;;;;0.13;0.13;;;1.90;99.90;;;;;;5048983;28;20656;-67
2022/03/04 04:50:54;;;;;;;0.10;0.10;;;2.00;99.90;;;;;;5058540;28;20629;-68
2022/03/04 04:53:21;;;;;;;0.20;0.20;;;2.00;99.90;;;;;;5033729;28;20648;-67
2022/03/04 04:55:48;;;;;;;0.10;0.10;;;2.00;99.90;;;;;;5052516;28;20708;-68
2022/03/04 04:58:17;;;;;;;0.10;0.10;;;2.10;99.90;;;;;;5044665;28;20679;-68
2022/03/04 05:00:45;;;;;;;0.10;0.10;;;2.00;99.90;;;;;;5038201;28;21092;-67
2022/03/04 05:03:12;;;;;;;0.10;0.10;;;2.20;99.90;;;;;;5059514;28;20671;-64
2022/03/04 05:05:40;;;;;;;0.10;0.10;;;2.20;99.90;;;;;;5055770;28;21057;-64
2022/03/04 05:08:07;;;;;;;0.20;0.20;;;2.20;99.90;;;;;;5041693;28;20779;-63
2022/03/04 05:10:34;;;;;;;0.20;0.20;;;2.00;99.90;;;;;;5036565;28;20624;-63
2022/03/04 05:13:01;;;;;;;0.20;0.20;;;2.00;99.90;;;;;;5058910;28;20661;-66
2022/03/04 05:15:30;;;;;;;0.10;0.10;;;1.90;99.90;;;;;;5040281;28;20616;-66
2022/03/04 05:17:57;;;;;;;0.10;0.10;;;1.80;99.90;;;;;;5059410;28;20752;-66
2022/03/04 05:20:24;;;;;;;0.20;0.20;;;1.90;99.90;;;;;;5033210;28;20637;-68
2022/03/04 05:22:51;;;;;;;0.10;0.10;;;1.80;99.90;;;;;;5032665;28;20613;-67
2022/03/04 05:25:19;;;;;;;0.20;0.20;;;1.60;99.90;;;;;;5054769;28;20673;-68
2022/03/04 05:27:46;;;;;;;0.13;0.13;;;1.70;99.90;;;;;;5039169;28;20656;-67
2022/03/04 05:30:14;;;;;;;0.13;0.13;;;1.80;99.90;;;;;;5040436;28;20727;-68
2022/03/04 05:32:42;;;;;;;0.10;0.10;;;1.80;99.90;;;;;;5041720;28;20648;-68
2022/03/04 05:35:09;;;;;;;0.10;0.10;;;1.70;99.90;;;;;;5039792;28;20628;-68
2022/03/04 05:37:36;;;;;;;0.10;0.10;;;1.60;99.90;;;;;;5039113;28;20652;-71
2022/03/04 05:40:06;;;;;;;0.20;0.20;;;1.70;99.90;;;;;;5037040;28;20633;-73
2022/03/04 05:42:33;;;;;;;0.20;0.20;;;1.60;99.90;;;;;;5037837;28;20628;-66
2022/03/04 05:45:00;;;;;;;0.10;0.10;;;1.60;99.90;;;;;;5060134;28;20670;-66
2022/03/04 05:47:27;;;;;;;0.20;0.20;;;1.60;99.90;;;;;;5040358;28;20714;-70
2022/03/04 05:49:56;;;;;;;0.20;0.20;;;1.60;99.90;;;;;;5052333;28;20625;-70
2022/03/04 05:52:23;;;;;;;0.13;0.13;;;1.70;99.90;;;;;;5036925;28;20624;-67
2022/03/04 05:54:50;;;;;;;0.20;0.20;;;1.60;99.90;;;;;;5039108;28;20639;-67
2022/03/04 05:57:17;;;;;;;0.10;0.10;;;1.50;99.90;;;;;;5032852;28;20626;-63
2022/03/04 05:59:44;;;;;;;0.10;0.10;;;1.60;99.90;;;;;;5031173;28;20634;-64
2022/03/04 06:02:11;;;;;;;0.20;0.20;;;1.40;99.90;;;;;;5053161;28;20610;-64
2022/03/04 06:04:39;;;;;;;0.20;0.20;;;1.70;99.90;;;;;;5052878;28;20655;-64
2022/03/04 06:07:07;;;;;;;0.10;0.10;;;1.50;99.90;;;;;;5060273;28;20604;-63
2022/03/04 06:09:34;;;;;;;0.20;0.20;;;1.40;99.90;;;;;;5036154;28;21266;-63
2022/03/04 06:12:02;;;;;;;0.13;0.13;;;1.60;99.90;;;;;;5058598;28;20641;-62
2022/03/04 06:14:29;;;;;;;0.10;0.10;;;1.40;99.90;;;;;;5037056;28;20711;-63
2022/03/04 06:16:57;;;;;;;0.13;0.13;;;1.40;99.90;;;;;;5058867;28;20716;-69
2022/03/04 06:19:24;;;;;;;0.20;0.20;;;1.30;99.90;;;;;;5052235;28;20637;-65
2022/03/04 06:21:51;;;;;;;0.10;0.10;;;1.30;99.90;;;;;;5028649;28;20621;-65
2022/03/04 06:24:20;;;;;;;0.13;0.13;;;1.40;99.90;;;;;;5035167;28;20677;-67
2022/03/04 06:26:46;;;;;;;0.20;0.20;;;1.30;99.90;;;;;;5055886;28;20605;-66
2022/03/04 06:29:13;;;;;;;0.10;0.10;;;1.40;99.90;;;;;;5059196;28;20652;-71
2022/03/04 06:31:41;;;;;;;0.10;0.10;;;1.10;99.90;;;;;;5052483;28;20612;-66
2022/03/04 06:34:08;;;;;;;0.10;0.10;;;1.20;99.90;;;;;;5031180;28;20661;-68
2022/03/04 06:36:35;;;;;;;0.20;0.20;;;0.80;99.90;;;;;;5034119;28;20620;-65
2022/03/04 06:39:02;;;;;;;0.10;0.10;;;0.70;99.90;;;;;;5037568;28;20656;-68
2022/03/04 06:41:30;;;;;;;0.10;0.10;;;0.90;99.90;;;;;;5033039;28;20703;-70
2022/03/04 06:43:58;;;;;;;0.10;0.10;;;0.90;99.90;;;;;;5040949;28;20612;-68
2022/03/04 06:46:24;;;;;;;0.20;0.20;;;0.80;99.90;;;;;;5039714;28;20681;-68
2022/03/04 06:48:52;;;;;;;0.10;0.10;;;0.50;99.90;;;;;;5056192;28;20222;-67
2022/03/04 06:51:19;;;;;;;0.17;0.17;;;0.70;99.90;;;;;;5053948;28;20608;-66
2022/03/04 06:53:46;;;;;;;0.20;0.20;;;0.50;99.90;;;;;;5038063;28;20763;-64
2022/03/04 06:56:16;;;;;;;0.10;0.10;;;0.40;99.90;;;;;;5038629;28;20621;-63
2022/03/04 06:58:45;;;;;;;0.10;0.10;;;0.60;99.90;;;;;;5031453;28;20278;-64
2022/03/04 07:01:12;;;;;;;0.10;0.10;;;0.40;99.90;;;;;;5042898;28;20215;-67
2022/03/04 07:03:39;;;;;;;0.15;0.15;;;0.60;99.90;;;;;;5035129;28;20200;-64
2022/03/04 07:06:07;;;;;;;0.10;0.10;;;0.60;99.90;;;;;;5032392;28;20198;-64
2022/03/04 07:08:36;;;;;;;0.20;0.20;;;0.40;99.90;;;;;;5043624;28;20210;-66
2022/03/04 07:11:03;;;;;;;0.10;0.10;;;0.60;99.90;;;;;;5033885;28;20214;-63
2022/03/04 07:13:34;;;;;;;0.20;0.20;;;0.60;99.90;;;;;;5041841;28;20223;-64
2022/03/04 07:16:02;;;;;;;0.10;0.10;;;0.60;99.90;;;;;;5053843;28;20670;-63
2022/03/04 07:18:29;;;;;;;0.15;0.15;;;0.30;99.90;;;;;;5038759;28;20308;-64
2022/03/04 07:20:57;;;;;;;0.10;0.10;;;0.50;99.90;;;;;;5056720;28;20194;-63
2022/03/04 07:23:29;;;;;;;0.10;0.10;;;0.30;99.90;;;;;;5056824;28;20194;-68
2022/03/04 07:25:55;;;;;;;0.20;0.20;;;0.50;99.90;;;;;;5030565;28;20210;-68
2022/03/04 07:28:22;;;;;;;0.10;0.10;;;0.60;99.90;;;;;;5041431;28;20288;-66
2022/03/04 07:30:49;;;;;;;0.20;0.20;;;0.50;99.90;;;;;;5042519;28;20629;-64
2022/03/04 07:33:18;;;;;;;0.10;0.10;;;0.70;99.90;;;;;;5042399;28;20648;-63
2022/03/04 07:35:45;;;;;;;0.10;0.10;;;0.80;99.90;;;;;;5036301;28;20205;-63
2022/03/04 07:38:12;;;;;;;0.10;0.10;;;0.90;99.90;;;;;;5051356;28;20214;-64
2022/03/04 07:40:40;;;;;;;0.13;0.13;;;0.70;99.90;;;;;;5054248;28;20209;-63
2022/03/04 07:43:07;;;;;;;0.10;0.10;;;1.00;99.90;;;;;;5053428;28;20290;-64
2022/03/04 07:45:34;;;;;;;0.20;0.20;;;0.70;99.90;;;;;;5059152;28;20611;-65
2022/03/04 07:48:02;;;;;;;0.10;0.10;;;0.80;99.90;;;;;;5053390;28;20233;-65
2022/03/04 07:50:30;;;;;;;0.20;0.20;;;1.00;99.90;;;;;;5042550;28;20706;-66
2022/03/04 07:52:57;;;;;;;0.20;0.20;;;1.00;99.90;;;;;;5037032;28;20667;-65
2022/03/04 07:55:26;;;;;;;0.20;0.20;;;0.90;99.90;;;;;;5056492;28;20203;-68
2022/03/04 07:57:55;;;;;;;0.10;0.10;;;0.80;99.90;;;;;;5035545;28;20646;-69
2022/03/04 08:00:24;;;;;;;0.20;0.20;;;0.90;99.90;;;;;;5053222;28;20199;-65
2022/03/04 08:02:51;;;;;;;0.20;0.20;;;0.70;99.90;;;;;;5042168;28;20214;-65
2022/03/04 08:05:19;;;;;;;0.20;0.20;;;1.00;99.90;;;;;;5041773;28;20210;-68
2022/03/04 08:07:48;;;;;;;0.10;0.10;;;1.00;99.90;;;;;;5058132;28;20641;-68
2022/03/04 08:10:15;;;;;;;0.20;0.20;;;1.10;99.90;;;;;;5042210;28;20639;-68
2022/03/04 08:12:42;;;;;;;0.20;0.20;;;1.10;99.90;;;;;;5057759;28;20619;-66
2022/03/04 08:15:12;;;;;;;0.20;0.20;;;1.00;99.90;;;;;;5053464;28;20753;-66
2022/03/04 08:17:39;;;;;;;0.20;0.20;;;0.90;99.90;;;;;;5036592;28;20221;-67
2022/03/04 08:20:07;;;;;;;0.20;0.20;;;1.20;99.90;;;;;;5030906;28;20628;-67
2022/03/04 08:22:34;;;;;;;0.17;0.17;;;1.20;99.90;;;;;;5034027;28;20657;-68
2022/03/04 08:25:03;;;;;;;0.20;0.20;;;1.10;99.90;;;;;;5038791;28;20302;-68
2022/03/04 08:27:36;;;;;;;0.20;0.20;;;0.90;99.90;;;;;;5042688;28;20660;-69
2022/03/04 08:30:05;;;;;;;0.20;0.20;;;1.10;99.90;;;;;;5043896;28;20658;-67
2022/03/04 08:32:33;;;;;;;0.17;0.17;;;1.20;99.90;;;;;;5052719;28;20606;-68
2022/03/04 08:35:00;;;;;;;0.10;0.10;;;1.30;99.90;;;;;;5054296;28;20681;-67
2022/03/04 08:37:28;;;;;;;0.13;0.13;;;1.20;99.90;;;;;;5038120;28;20722;-65
2022/03/04 08:39:55;;;;;;;0.10;0.10;;;1.00;99.90;;;;;;5047008;28;20617;-67
2022/03/04 08:42:24;;;;;;;0.10;0.10;;;1.10;99.90;;;;;;5033765;28;20686;-68
2022/03/04 08:44:52;;;;;;;0.10;0.10;;;1.20;99.90;;;;;;5030891;28;20631;-68
2022/03/04 08:47:21;;;;;;;0.10;0.10;;;1.40;99.90;;;;;;5055040;28;20616;-68
2022/03/04 08:49:48;;;;;;;0.10;0.10;;;1.40;99.90;;;;;;5039546;28;20653;-65
2022/03/04 08:52:16;;;;;;;0.20;0.20;;;1.40;99.90;;;;;;5048848;28;20627;-67
2022/03/04 08:54:43;;;;;;;0.20;0.20;;;1.50;99.90;;;;;;5056609;28;21251;-68
2022/03/04 08:57:10;;;;;;;0.10;0.10;;;1.80;99.90;;;;;;5041272;28;20652;-68
2022/03/04 08:59:39;;;;;;;0.20;0.20;;;1.80;99.90;;;;;;5063750;28;20613;-66
2022/03/04 09:02:06;;;;;;;0.10;0.10;;;1.90;99.90;;;;;;5045318;28;20628;-67
2022/03/04 09:04:33;;;;;;;0.10;0.10;;;2.00;99.90;;;;;;5043663;28;20993;-66
2022/03/04 09:07:00;;;;;;;0.10;0.10;;;1.90;99.90;;;;;;5061787;28;20616;-68
2022/03/04 09:09:31;;;;;;;0.10;0.10;;;2.00;99.90;;;;;;5040178;28;20623;-67
2022/03/04 09:11:58;;;;;;;0.20;0.20;;;2.10;99.90;;;;;;5043046;28;20628;-67
2022/03/04 09:14:25;;;;;;;0.10;0.10;;;2.20;99.90;;;;;;5039987;28;20644;-67
2022/03/04 09:16:54;;;;;;;0.20;0.20;;;2.20;99.90;;;;;;5057658;28;20623;-66
2022/03/04 09:19:21;;;;;;;0.13;0.13;;;2.30;99.90;;;;;;5054070;28;20642;-74
2022/03/04 09:21:48;;;;;;;0.10;0.10;;;2.30;99.90;;;;;;5037202;28;20648;-70
2022/03/04 09:24:15;;;;;;;0.20;0.20;;;2.30;99.90;;;;;;5036200;28;20624;-68
2022/03/04 09:26:43;;;;;;;0.20;0.20;;;2.30;99.90;;;;;;5037662;28;20622;-70
2022/03/04 09:29:10;;;;;;;0.17;0.17;;;2.50;99.90;;;;;;5041095;28;21262;-69
2022/03/04 09:31:37;;;;;;;0.10;0.10;;;2.60;99.90;;;;;;5035825;28;20701;-68
2022/03/04 09:34:05;;;;;;;0.10;0.10;;;2.60;99.90;;;;;;5055402;28;20648;-69
2022/03/04 09:36:32;;;;;;;0.10;0.10;;;2.70;99.90;;;;;;5053526;28;20974;-68
2022/03/04 09:38:59;;;;;;;0.10;0.10;;;2.80;99.90;;;;;;5050977;28;20728;-67
2022/03/04 09:41:27;;;;;;;0.20;0.20;;;2.90;99.90;;;;;;5041810;28;20628;-67
2022/03/04 09:43:55;;;;;;;0.10;0.10;;;3.00;99.90;;;;;;5057273;28;20609;-70
2022/03/04 09:46:23;;;;;;;0.20;0.20;;;3.00;99.90;;;;;;5052162;28;20732;-70
2022/03/04 09:48:51;;;;;;;0.10;0.10;;;3.10;99.90;;;;;;5033258;28;20669;-67
2022/03/04 09:51:20;;;;;;;0.10;0.10;;;3.20;99.90;;;;;;5054752;28;20637;-67
2022/03/04 09:53:47;;;;;;;0.10;0.10;;;3.30;99.90;;;;;;5052986;28;20652;-67
2022/03/04 09:56:14;;;;;;;0.10;0.10;;;3.50;99.90;;;;;;5056965;28;21240;-67
2022/03/04 09:58:41;;;;;;;0.10;0.10;;;3.60;99.90;;;;;;5054971;28;20645;-66
2022/03/04 10:01:11;;;;;;;0.10;0.10;;;3.80;99.90;;;;;;5050733;28;20720;-66
2022/03/04 10:03:46;;;;;;;0.13;0.13;;;3.90;99.90;;;;;;5032248;28;20657;-67
2022/03/04 10:06:14;;;;;;;0.10;0.10;;;4.20;99.90;;;;;;5033986;28;20621;-66
2022/03/04 10:08:44;;;;;;;0.10;0.10;;;4.10;99.90;;;;;;5054900;28;20644;-67
2022/03/04 10:11:13;;;;;;;0.10;0.10;;;4.10;99.90;;;;;;5042681;28;20616;-67
2022/03/04 10:13:44;;;;;;;0.17;0.17;;;4.10;99.90;;;;;;5043301;28;20643;-69
2022/03/04 10:16:13;;;;;;;0.10;0.10;;;4.10;99.90;;;;;;5043010;28;20617;-67
2022/03/04 10:18:40;;;;;;;0.10;0.10;;;4.20;99.90;;;;;;5059046;28;20656;-67
2022/03/04 10:21:07;;;;;;;0.10;0.10;;;4.10;99.90;;;;;;5055396;28;20707;-68
2022/03/04 10:23:37;;;;;;;0.10;0.10;;;4.10;99.90;;;;;;5039107;28;20637;-66
2022/03/04 10:26:09;;;;;;;0.10;0.10;;;4.00;99.90;;;;;;5043352;28;20617;-66
2022/03/04 10:28:37;;;;;;;0.10;0.10;;;3.90;99.90;;;;;;5044069;28;20699;-69
2022/03/04 10:31:09;;;;;;;0.20;0.20;;;4.10;99.90;;;;;;5036867;28;20652;-67
2022/03/04 10:33:36;;;;;;;0.10;0.10;;;4.10;99.90;;;;;;5037491;28;20632;-66
2022/03/04 10:36:08;;;;;;;0.10;0.10;;;4.10;99.90;;;;;;5038039;28;20746;-65
2022/03/04 10:38:36;;;;;;;0.10;0.10;;;4.10;99.90;;;;;;5034405;28;20665;-66
2022/03/04 10:41:23;;;;;;;0.10;0.10;;;4.10;99.90;;;;;;5037183;28;20625;-64
2022/03/04 10:43:51;;;;;;;0.10;0.10;;;4.00;99.90;;;;;;5048831;28;20664;-65
2022/03/04 10:46:18;;;;;;;0.10;0.10;;;3.90;99.90;;;;;;5044360;28;20616;-65
2022/03/04 10:48:53;;;;;;;0.10;0.10;;;3.90;99.90;;;;;;5039099;28;20656;-65
2022/03/04 10:51:34;;;;;;;0.10;0.10;;;3.70;99.90;;;;;;5042534;28;20662;-66
2022/03/04 10:54:12;;;;;;;0.10;0.10;;;3.60;99.90;;;;;;5042859;28;20640;-64
2022/03/04 10:56:55;;;;;;;0.10;0.10;;;3.70;99.90;;;;;;5045720;28;20624;-64
2022/03/04 10:59:22;;;;;;;0.10;0.10;;;3.60;99.90;;;;;;5038836;28;20704;-64
2022/03/04 11:01:51;;;;;;;0.10;0.10;;;3.60;99.90;;;;;;5050380;28;20647;-67
2022/03/04 11:04:20;;;;;;;0.10;0.10;;;3.60;99.90;;;;;;5049163;28;20626;-65
2022/03/04 11:06:48;;;;;;;0.10;0.10;;;3.70;99.90;;;;;;5052301;28;20697;-64
2022/03/04 11:09:16;;;;;;;0.10;0.10;;;3.80;99.90;;;;;;5059776;28;20644;-65
2022/03/04 11:12:08;;;;;;;0.10;0.10;;;3.70;99.90;;;;;;5052675;28;20691;-65
2022/03/04 11:14:35;;;;;;;0.10;0.10;;;3.70;99.90;;;;;;5037915;28;20646;-66
2022/03/04 11:17:03;;;;;;;0.13;0.13;;;3.60;99.90;;;;;;5033122;28;20624;-67
2022/03/04 11:19:34;;;;;;;0.10;0.10;;;3.40;99.90;;;;;;5056212;28;20663;-67
2022/03/04 11:22:01;;;;;;;0.10;0.10;;;3.60;99.90;;;;;;5041754;28;20733;-65
2022/03/04 11:24:36;;;;;;;0.10;0.10;;;3.50;99.90;;;;;;5053490;28;20604;-65
2022/03/04 11:27:09;;;;;;;0.10;0.10;;;3.50;99.90;;;;;;5044143;28;21043;-65
2022/03/04 11:29:38;;;;;;;0.13;0.13;;;3.40;99.90;;;;;;5041913;28;20633;-66
2022/03/04 11:32:06;;;;;;;0.10;0.10;;;3.40;99.90;;;;;;5058271;28;20764;-65
2022/03/04 11:34:35;;;;;;;0.10;0.10;;;3.40;99.90;;;;;;5056089;28;20807;-66
2022/03/04 11:37:03;;;;;;;0.10;0.10;;;3.60;99.90;;;;;;5034992;28;21185;-66
2022/03/04 11:39:30;;;;;;;0.10;0.10;;;3.60;99.90;;;;;;5058655;28;20613;-65
2022/03/04 11:42:15;;;;;;;0.10;0.10;;;3.70;99.90;;;;;;5048610;28;20621;-66
2022/03/04 11:44:53;;;;;;;0.10;0.10;;;3.80;99.90;;;;;;5031786;28;20627;-66
2022/03/04 11:47:20;;;;;;;0.10;0.10;;;3.70;99.90;;;;;;5048927;22;20620;-70
2022/03/04 11:49:47;;;;;;;0.10;0.10;;;3.70;99.90;;;;;;5053239;28;20618;-69
2022/03/04 11:52:26;;;;;;;0.00;0.00;;;3.90;99.90;;;;;;5041394;28;20620;-70
2022/03/04 11:55:16;;;;;;;0.10;0.10;;;3.90;99.90;;;;;;5058202;28;20648;-69
2022/03/04 11:57:45;;;;;;;0.10;0.10;;;3.90;99.90;;;;;;5043298;28;20715;-70
2022/03/04 12:00:29;;;;;;;0.13;0.13;;;3.90;99.90;;;;;;5047200;28;20637;-70
2022/03/04 12:02:58;;;;;;;0.10;0.10;;;3.90;99.90;;;;;;5025107;28;20633;-70
2022/03/04 12:05:30;;;;;;;0.10;0.10;;;4.00;99.90;;;;;;5020988;28;20680;-70
2022/03/04 12:08:10;;;;;;;0.10;0.10;;;4.20;99.90;;;;;;5043247;28;20713;-70
2022/03/04 12:10:50;;;;;;;0.10;0.10;;;4.30;99.90;;;;;;5024142;28;20625;-71
2022/03/04 12:13:21;;;;;;;0.10;0.10;;;4.30;99.90;;;;;;5036871;28;20724;-71
2022/03/04 12:15:57;;;;;;;0.10;0.10;;;4.40;99.90;;;;;;5024346;28;20673;-69
2022/03/04 12:18:36;;;;;;;0.10;0.10;;;4.50;99.90;;;;;;5045443;28;21153;-71
2022/03/04 12:21:10;;;;;;;0.10;0.10;;;4.40;99.90;;;;;;5027681;28;20629;-71
2022/03/04 12:23:45;;;;;;;0.10;0.10;;;4.50;99.90;;;;;;5026667;28;20628;-71
2022/03/04 12:26:20;;;;;;;0.10;0.10;;;4.40;99.90;;;;;;5041987;28;20641;-72
2022/03/04 12:28:50;;;;;;;0.10;0.10;;;4.40;99.90;;;;;;5024971;28;20645;-71
2022/03/04 12:31:24;;;;;;;0.10;0.10;;;4.30;99.90;;;;;;5024133;28;20631;-70
2022/03/04 12:33:57;;;;;;;0.10;0.10;;;4.30;99.90;;;;;;5021901;28;20716;-70
2022/03/04 12:36:27;;;;;;;0.10;0.10;;;4.30;99.90;;;;;;5040738;28;20727;-70
2022/03/04 12:38:56;;;;;;;0.10;0.10;;;4.30;99.90;;;;;;5038397;28;20598;-69
2022/03/04 12:41:26;;;;;;;0.10;0.10;;;4.50;99.90;;;;;;5043504;28;20709;-70
2022/03/04 12:43:56;;;;;;;0.10;0.10;;;4.50;99.90;;;;;;5022779;28;20629;-70
2022/03/04 12:46:25;;;;;;;0.10;0.10;;;4.70;99.90;;;;;;5023636;28;20747;-70
2022/03/04 12:48:53;;;;;;;0.10;0.10;;;4.60;99.90;;;;;;5017178;28;20665;-69
2022/03/04 12:51:25;;;;;;;0.10;0.10;;;4.60;99.90;;;;;;5024933;28;20628;-69
2022/03/04 12:53:54;;;;;;;0.10;0.10;;;4.60;99.90;;;;;;5040157;28;20635;-70
2022/03/04 12:56:22;;;;;;;0.10;0.10;;;4.60;99.90;;;;;;5041220;28;20681;-70
2022/03/04 12:58:51;;;;;;;0.20;0.20;;;4.80;99.90;;;;;;5024026;28;20618;-70
2022/03/04 13:01:21;;;;;;;0.10;0.10;;;4.60;99.90;;;;;;5024659;28;20660;-70
2022/03/04 13:03:50;;;;;;;0.10;0.10;;;4.70;99.90;;;;;;5027249;28;20610;-70